sensor_id;sensor_type;location;lat;lon;timestamp;temperature;humidity
42141;DHT22;27809;51.864;5.646;2023-06-14T00:00:18;18.00;1.00
42141;DHT22;27809;51.864;5.646;2023-06-14T00:02:44;17.90;1.00
42141;DHT22;27809;51.864;5.646;2023-06-14T00:05:09;17.80;1.00
42141;DHT22;27809;51.864;5.646;2023-06-14T00:07:41;17.80;1.00
42141;DHT22;27809;51.864;5.646;2023-06-14T00:10:14;17.70;1.00
42141;DHT22;27809;51.864;5.646;2023-06-14T00:12:40;17.70;1.00
42141;DHT22;27809;51.864;5.646;2023-06-14T00:15:07;17.70;1.00
42141;DHT22;27809;51.864;5.646;2023-06-14T00:17:35;17.60;1.00
42141;DHT22;27809;51.864;5.646;2023-06-14T00:20:03;17.60;1.00
42141;DHT22;27809;51.864;5.646;2023-06-14T00:22:30;17.50;1.00
42141;DHT22;27809;51.864;5.646;2023-06-14T00:24:57;17.70;1.00
42141;DHT22;27809;51.864;5.646;2023-06-14T00:27:22;17.60;1.00
42141;DHT22;27809;51.864;5.646;2023-06-14T00:29:48;17.60;1.00
42141;DHT22;27809;51.864;5.646;2023-06-14T00:32:13;17.60;1.00
42141;DHT22;27809;51.864;5.646;2023-06-14T00:34:39;17.60;1.00
42141;DHT22;27809;51.864;5.646;2023-06-14T00:37:04;17.60;1.00
42141;DHT22;27809;51.864;5.646;2023-06-14T00:39:30;17.40;1.00
42141;DHT22;27809;51.864;5.646;2023-06-14T00:41:55;17.20;1.00
42141;DHT22;27809;51.864;5.646;2023-06-14T00:44:21;17.10;1.00
42141;DHT22;27809;51.864;5.646;2023-06-14T00:46:47;17.10;1.00
42141;DHT22;27809;51.864;5.646;2023-06-14T00:49:14;17.00;1.00
42141;DHT22;27809;51.864;5.646;2023-06-14T00:51:41;17.00;1.00
42141;DHT22;27809;51.864;5.646;2023-06-14T00:54:07;17.10;1.00
42141;DHT22;27809;51.864;5.646;2023-06-14T00:56:32;17.00;1.00
42141;DHT22;27809;51.864;5.646;2023-06-14T00:58:58;17.00;1.00
42141;DHT22;27809;51.864;5.646;2023-06-14T01:01:24;16.70;1.00
42141;DHT22;27809;51.864;5.646;2023-06-14T01:03:49;16.70;1.00
42141;DHT22;27809;51.864;5.646;2023-06-14T01:11:48;16.50;1.00
42141;DHT22;27809;51.864;5.646;2023-06-14T01:14:16;16.50;1.00
42141;DHT22;27809;51.864;5.646;2023-06-14T01:16:43;16.50;1.00
42141;DHT22;27809;51.864;5.646;2023-06-14T01:19:12;16.30;1.00
42141;DHT22;27809;51.864;5.646;2023-06-14T01:21:39;16.40;1.00
42141;DHT22;27809;51.864;5.646;2023-06-14T01:24:08;16.30;1.00
42141;DHT22;27809;51.864;5.646;2023-06-14T01:26:34;16.30;1.00
42141;DHT22;27809;51.864;5.646;2023-06-14T01:29:03;16.20;1.00
42141;DHT22;27809;51.864;5.646;2023-06-14T01:31:29;16.20;1.00
42141;DHT22;27809;51.864;5.646;2023-06-14T01:33:55;16.50;1.00
42141;DHT22;27809;51.864;5.646;2023-06-14T01:36:22;16.50;1.00
42141;DHT22;27809;51.864;5.646;2023-06-14T01:38:50;16.60;1.00
42141;DHT22;27809;51.864;5.646;2023-06-14T01:41:17;16.50;1.00
42141;DHT22;27809;51.864;5.646;2023-06-14T01:43:44;16.40;1.00
42141;DHT22;27809;51.864;5.646;2023-06-14T01:46:10;16.40;1.00
42141;DHT22;27809;51.864;5.646;2023-06-14T01:48:37;16.50;1.00
42141;DHT22;27809;51.864;5.646;2023-06-14T01:51:02;16.40;1.00
42141;DHT22;27809;51.864;5.646;2023-06-14T01:53:28;16.40;1.00
42141;DHT22;27809;51.864;5.646;2023-06-14T01:55:53;16.30;1.00
42141;DHT22;27809;51.864;5.646;2023-06-14T01:58:19;16.10;1.00
42141;DHT22;27809;51.864;5.646;2023-06-14T02:00:45;16.00;1.00
42141;DHT22;27809;51.864;5.646;2023-06-14T02:03:11;16.00;1.00
42141;DHT22;27809;51.864;5.646;2023-06-14T02:05:37;15.90;1.00
42141;DHT22;27809;51.864;5.646;2023-06-14T02:08:04;16.00;1.00
42141;DHT22;27809;51.864;5.646;2023-06-14T02:10:30;16.00;1.00
42141;DHT22;27809;51.864;5.646;2023-06-14T02:12:56;16.00;1.00
42141;DHT22;27809;51.864;5.646;2023-06-14T02:15:21;16.00;1.00
42141;DHT22;27809;51.864;5.646;2023-06-14T02:17:47;15.80;1.00
42141;DHT22;27809;51.864;5.646;2023-06-14T02:20:15;15.70;1.00
42141;DHT22;27809;51.864;5.646;2023-06-14T02:22:41;15.60;1.00
42141;DHT22;27809;51.864;5.646;2023-06-14T02:25:07;15.60;1.00
42141;DHT22;27809;51.864;5.646;2023-06-14T02:27:33;15.40;1.00
42141;DHT22;27809;51.864;5.646;2023-06-14T02:29:59;15.50;1.00
42141;DHT22;27809;51.864;5.646;2023-06-14T02:32:25;15.60;1.00
42141;DHT22;27809;51.864;5.646;2023-06-14T02:34:52;15.60;1.00
42141;DHT22;27809;51.864;5.646;2023-06-14T02:37:19;15.60;1.00
42141;DHT22;27809;51.864;5.646;2023-06-14T02:39:44;15.70;1.00
42141;DHT22;27809;51.864;5.646;2023-06-14T02:42:10;15.60;1.00
42141;DHT22;27809;51.864;5.646;2023-06-14T02:44:36;15.40;1.00
42141;DHT22;27809;51.864;5.646;2023-06-14T02:47:02;15.30;1.00
42141;DHT22;27809;51.864;5.646;2023-06-14T02:49:27;15.30;1.00
42141;DHT22;27809;51.864;5.646;2023-06-14T02:51:53;15.20;1.00
42141;DHT22;27809;51.864;5.646;2023-06-14T02:54:18;15.20;1.00
42141;DHT22;27809;51.864;5.646;2023-06-14T02:56:44;15.30;1.00
42141;DHT22;27809;51.864;5.646;2023-06-14T02:59:10;15.40;1.00
42141;DHT22;27809;51.864;5.646;2023-06-14T03:01:36;15.40;1.00
42141;DHT22;27809;51.864;5.646;2023-06-14T03:04:07;15.50;1.00
42141;DHT22;27809;51.864;5.646;2023-06-14T03:06:32;15.40;1.00
42141;DHT22;27809;51.864;5.646;2023-06-14T03:08:59;15.30;1.00
42141;DHT22;27809;51.864;5.646;2023-06-14T03:11:27;15.30;1.00
42141;DHT22;27809;51.864;5.646;2023-06-14T03:13:53;15.30;1.00
42141;DHT22;27809;51.864;5.646;2023-06-14T03:16:19;15.30;1.00
42141;DHT22;27809;51.864;5.646;2023-06-14T03:18:48;15.20;1.00
42141;DHT22;27809;51.864;5.646;2023-06-14T03:21:14;15.30;1.00
42141;DHT22;27809;51.864;5.646;2023-06-14T03:23:41;15.20;1.00
42141;DHT22;27809;51.864;5.646;2023-06-14T03:26:07;15.00;1.00
42141;DHT22;27809;51.864;5.646;2023-06-14T03:28:33;15.10;1.00
42141;DHT22;27809;51.864;5.646;2023-06-14T03:30:58;15.20;1.00
42141;DHT22;27809;51.864;5.646;2023-06-14T03:33:25;15.20;1.00
42141;DHT22;27809;51.864;5.646;2023-06-14T03:35:51;15.20;1.00
42141;DHT22;27809;51.864;5.646;2023-06-14T03:38:17;15.20;1.00
42141;DHT22;27809;51.864;5.646;2023-06-14T03:40:42;15.00;1.00
42141;DHT22;27809;51.864;5.646;2023-06-14T03:43:08;15.00;1.00
42141;DHT22;27809;51.864;5.646;2023-06-14T03:45:33;15.10;1.00
42141;DHT22;27809;51.864;5.646;2023-06-14T03:47:59;15.20;1.00
42141;DHT22;27809;51.864;5.646;2023-06-14T03:50:26;15.20;1.00
42141;DHT22;27809;51.864;5.646;2023-06-14T03:52:52;15.30;1.00
42141;DHT22;27809;51.864;5.646;2023-06-14T03:55:18;15.30;1.00
42141;DHT22;27809;51.864;5.646;2023-06-14T03:57:43;15.30;1.00
42141;DHT22;27809;51.864;5.646;2023-06-14T04:00:09;15.30;1.00
42141;DHT22;27809;51.864;5.646;2023-06-14T04:02:35;15.30;1.00
42141;DHT22;27809;51.864;5.646;2023-06-14T04:05:02;15.40;1.00
42141;DHT22;27809;51.864;5.646;2023-06-14T04:07:28;15.40;1.00
42141;DHT22;27809;51.864;5.646;2023-06-14T04:09:54;15.30;1.00
42141;DHT22;27809;51.864;5.646;2023-06-14T04:12:20;15.40;1.00
42141;DHT22;27809;51.864;5.646;2023-06-14T04:14:45;15.40;1.00
42141;DHT22;27809;51.864;5.646;2023-06-14T04:17:11;15.50;1.00
42141;DHT22;27809;51.864;5.646;2023-06-14T04:19:36;15.40;1.00
42141;DHT22;27809;51.864;5.646;2023-06-14T04:22:02;15.50;1.00
42141;DHT22;27809;51.864;5.646;2023-06-14T04:24:28;15.60;1.00
42141;DHT22;27809;51.864;5.646;2023-06-14T04:27:00;15.60;1.00
42141;DHT22;27809;51.864;5.646;2023-06-14T04:29:26;15.60;1.00
42141;DHT22;27809;51.864;5.646;2023-06-14T04:31:54;15.80;1.00
42141;DHT22;27809;51.864;5.646;2023-06-14T04:34:20;15.90;1.00
42141;DHT22;27809;51.864;5.646;2023-06-14T04:36:47;15.90;1.00
42141;DHT22;27809;51.864;5.646;2023-06-14T04:39:19;16.00;1.00
42141;DHT22;27809;51.864;5.646;2023-06-14T04:41:45;16.10;1.00
42141;DHT22;27809;51.864;5.646;2023-06-14T04:44:12;16.20;1.00
42141;DHT22;27809;51.864;5.646;2023-06-14T04:46:38;16.20;1.00
42141;DHT22;27809;51.864;5.646;2023-06-14T04:49:14;16.30;1.00
42141;DHT22;27809;51.864;5.646;2023-06-14T04:51:44;16.40;1.00
42141;DHT22;27809;51.864;5.646;2023-06-14T04:54:11;16.60;1.00
42141;DHT22;27809;51.864;5.646;2023-06-14T04:56:39;16.70;1.00
42141;DHT22;27809;51.864;5.646;2023-06-14T04:59:05;16.70;1.00
42141;DHT22;27809;51.864;5.646;2023-06-14T05:01:31;16.80;1.00
42141;DHT22;27809;51.864;5.646;2023-06-14T05:03:59;16.80;1.00
42141;DHT22;27809;51.864;5.646;2023-06-14T05:06:25;16.90;1.00
42141;DHT22;27809;51.864;5.646;2023-06-14T05:08:53;16.90;1.00
42141;DHT22;27809;51.864;5.646;2023-06-14T05:11:18;17.00;1.00
42141;DHT22;27809;51.864;5.646;2023-06-14T05:13:44;17.00;1.00
42141;DHT22;27809;51.864;5.646;2023-06-14T05:16:10;17.10;1.00
42141;DHT22;27809;51.864;5.646;2023-06-14T05:18:36;17.10;1.00
42141;DHT22;27809;51.864;5.646;2023-06-14T05:21:03;17.30;1.00
42141;DHT22;27809;51.864;5.646;2023-06-14T05:23:30;17.40;1.00
42141;DHT22;27809;51.864;5.646;2023-06-14T05:25:56;17.40;1.00
42141;DHT22;27809;51.864;5.646;2023-06-14T05:28:22;17.50;1.00
42141;DHT22;27809;51.864;5.646;2023-06-14T05:30:47;17.60;1.00
42141;DHT22;27809;51.864;5.646;2023-06-14T05:33:13;17.70;1.00
42141;DHT22;27809;51.864;5.646;2023-06-14T05:35:38;17.80;1.00
42141;DHT22;27809;51.864;5.646;2023-06-14T05:38:04;17.80;1.00
42141;DHT22;27809;51.864;5.646;2023-06-14T05:40:31;17.80;1.00
42141;DHT22;27809;51.864;5.646;2023-06-14T05:42:56;17.80;1.00
42141;DHT22;27809;51.864;5.646;2023-06-14T05:45:22;18.00;1.00
42141;DHT22;27809;51.864;5.646;2023-06-14T05:47:47;18.00;1.00
42141;DHT22;27809;51.864;5.646;2023-06-14T05:50:13;18.10;1.00
42141;DHT22;27809;51.864;5.646;2023-06-14T05:52:38;18.20;1.00
42141;DHT22;27809;51.864;5.646;2023-06-14T05:55:04;18.30;1.00
42141;DHT22;27809;51.864;5.646;2023-06-14T05:57:30;18.30;1.00
42141;DHT22;27809;51.864;5.646;2023-06-14T05:59:55;18.40;1.00
42141;DHT22;27809;51.864;5.646;2023-06-14T06:02:21;18.40;1.00
42141;DHT22;27809;51.864;5.646;2023-06-14T06:04:46;18.40;1.00
42141;DHT22;27809;51.864;5.646;2023-06-14T06:07:12;18.50;1.00
42141;DHT22;27809;51.864;5.646;2023-06-14T06:09:38;18.60;1.00
42141;DHT22;27809;51.864;5.646;2023-06-14T06:12:06;18.70;1.00
42141;DHT22;27809;51.864;5.646;2023-06-14T06:14:32;21.40;1.00
42141;DHT22;27809;51.864;5.646;2023-06-14T06:16:57;22.10;1.00
42141;DHT22;27809;51.864;5.646;2023-06-14T06:19:23;22.30;1.00
42141;DHT22;27809;51.864;5.646;2023-06-14T06:21:49;22.50;1.00
42141;DHT22;27809;51.864;5.646;2023-06-14T06:24:14;21.90;1.00
42141;DHT22;27809;51.864;5.646;2023-06-14T06:26:40;23.10;1.00
42141;DHT22;27809;51.864;5.646;2023-06-14T06:29:06;22.80;1.00
42141;DHT22;27809;51.864;5.646;2023-06-14T06:31:31;23.20;1.00
42141;DHT22;27809;51.864;5.646;2023-06-14T06:33:57;22.60;1.00
42141;DHT22;27809;51.864;5.646;2023-06-14T06:36:22;23.10;1.00
42141;DHT22;27809;51.864;5.646;2023-06-14T06:38:48;22.80;1.00
42141;DHT22;27809;51.864;5.646;2023-06-14T06:41:13;23.10;1.00
42141;DHT22;27809;51.864;5.646;2023-06-14T06:43:39;22.80;1.00
42141;DHT22;27809;51.864;5.646;2023-06-14T06:46:05;22.80;1.00
42141;DHT22;27809;51.864;5.646;2023-06-14T06:48:30;23.40;1.00
42141;DHT22;27809;51.864;5.646;2023-06-14T06:50:56;23.00;1.00
42141;DHT22;27809;51.864;5.646;2023-06-14T06:53:22;22.30;1.00
42141;DHT22;27809;51.864;5.646;2023-06-14T06:55:48;22.10;1.00
42141;DHT22;27809;51.864;5.646;2023-06-14T06:58:13;23.00;1.00
42141;DHT22;27809;51.864;5.646;2023-06-14T07:00:39;23.50;1.00
42141;DHT22;27809;51.864;5.646;2023-06-14T07:03:05;23.30;1.00
42141;DHT22;27809;51.864;5.646;2023-06-14T07:05:30;23.40;1.00
42141;DHT22;27809;51.864;5.646;2023-06-14T07:07:56;23.00;1.00
42141;DHT22;27809;51.864;5.646;2023-06-14T07:10:22;23.40;1.00
42141;DHT22;27809;51.864;5.646;2023-06-14T07:12:50;23.10;1.00
42141;DHT22;27809;51.864;5.646;2023-06-14T07:15:15;23.50;1.00
42141;DHT22;27809;51.864;5.646;2023-06-14T07:17:41;22.70;1.00
42141;DHT22;27809;51.864;5.646;2023-06-14T07:20:08;23.00;1.00
42141;DHT22;27809;51.864;5.646;2023-06-14T07:22:37;21.80;1.00
42141;DHT22;27809;51.864;5.646;2023-06-14T07:25:03;21.50;1.00
42141;DHT22;27809;51.864;5.646;2023-06-14T07:27:28;22.50;1.00
42141;DHT22;27809;51.864;5.646;2023-06-14T07:29:54;22.10;1.00
42141;DHT22;27809;51.864;5.646;2023-06-14T07:32:19;21.70;1.00
42141;DHT22;27809;51.864;5.646;2023-06-14T07:34:45;21.60;1.00
42141;DHT22;27809;51.864;5.646;2023-06-14T07:37:11;21.70;1.00
42141;DHT22;27809;51.864;5.646;2023-06-14T07:39:36;21.70;1.00
42141;DHT22;27809;51.864;5.646;2023-06-14T07:42:02;21.80;1.00
42141;DHT22;27809;51.864;5.646;2023-06-14T07:44:30;21.70;1.00
42141;DHT22;27809;51.864;5.646;2023-06-14T07:46:56;21.80;1.00
42141;DHT22;27809;51.864;5.646;2023-06-14T07:49:25;21.80;1.00
42141;DHT22;27809;51.864;5.646;2023-06-14T07:51:51;22.20;1.00
42141;DHT22;27809;51.864;5.646;2023-06-14T07:54:16;22.40;1.00
42141;DHT22;27809;51.864;5.646;2023-06-14T07:56:42;22.50;1.00
42141;DHT22;27809;51.864;5.646;2023-06-14T07:59:08;22.50;1.00
42141;DHT22;27809;51.864;5.646;2023-06-14T08:01:34;22.60;1.00
42141;DHT22;27809;51.864;5.646;2023-06-14T08:04:00;22.70;1.00
42141;DHT22;27809;51.864;5.646;2023-06-14T08:06:26;22.70;1.00
42141;DHT22;27809;51.864;5.646;2023-06-14T08:08:51;23.20;1.00
42141;DHT22;27809;51.864;5.646;2023-06-14T08:11:17;22.80;1.00
42141;DHT22;27809;51.864;5.646;2023-06-14T08:13:43;23.00;1.00
42141;DHT22;27809;51.864;5.646;2023-06-14T08:16:08;23.50;1.00
42141;DHT22;27809;51.864;5.646;2023-06-14T08:18:34;23.70;1.00
42141;DHT22;27809;51.864;5.646;2023-06-14T08:20:59;23.60;1.00
42141;DHT22;27809;51.864;5.646;2023-06-14T08:23:25;23.60;1.00
42141;DHT22;27809;51.864;5.646;2023-06-14T08:25:51;23.60;1.00
42141;DHT22;27809;51.864;5.646;2023-06-14T08:28:16;23.90;1.00
42141;DHT22;27809;51.864;5.646;2023-06-14T08:30:42;23.70;1.00
42141;DHT22;27809;51.864;5.646;2023-06-14T08:33:08;24.10;1.00
42141;DHT22;27809;51.864;5.646;2023-06-14T08:35:33;24.40;1.00
42141;DHT22;27809;51.864;5.646;2023-06-14T08:38:02;24.60;1.00
42141;DHT22;27809;51.864;5.646;2023-06-14T08:40:30;24.40;1.00
42141;DHT22;27809;51.864;5.646;2023-06-14T08:42:56;24.70;1.00
42141;DHT22;27809;51.864;5.646;2023-06-14T08:45:22;24.80;1.00
42141;DHT22;27809;51.864;5.646;2023-06-14T08:47:49;25.10;1.00
42141;DHT22;27809;51.864;5.646;2023-06-14T08:50:23;25.40;1.00
42141;DHT22;27809;51.864;5.646;2023-06-14T08:52:54;24.90;1.00
42141;DHT22;27809;51.864;5.646;2023-06-14T08:55:23;24.60;1.00
42141;DHT22;27809;51.864;5.646;2023-06-14T08:57:54;25.20;1.00
42141;DHT22;27809;51.864;5.646;2023-06-14T09:00:20;24.90;1.00
42141;DHT22;27809;51.864;5.646;2023-06-14T09:02:46;25.10;1.00
42141;DHT22;27809;51.864;5.646;2023-06-14T09:05:15;25.40;1.00
42141;DHT22;27809;51.864;5.646;2023-06-14T09:07:44;25.90;1.00
42141;DHT22;27809;51.864;5.646;2023-06-14T09:10:11;26.00;1.00
42141;DHT22;27809;51.864;5.646;2023-06-14T09:12:37;26.20;1.00
42141;DHT22;27809;51.864;5.646;2023-06-14T09:15:07;26.30;1.00
42141;DHT22;27809;51.864;5.646;2023-06-14T09:17:35;26.00;1.00
42141;DHT22;27809;51.864;5.646;2023-06-14T09:20:02;25.90;1.00
42141;DHT22;27809;51.864;5.646;2023-06-14T09:22:31;26.80;1.00
42141;DHT22;27809;51.864;5.646;2023-06-14T09:24:56;26.30;1.00
42141;DHT22;27809;51.864;5.646;2023-06-14T09:27:22;27.10;1.00
42141;DHT22;27809;51.864;5.646;2023-06-14T09:29:47;27.30;1.00
42141;DHT22;27809;51.864;5.646;2023-06-14T09:32:13;27.30;1.00
42141;DHT22;27809;51.864;5.646;2023-06-14T09:34:39;27.10;1.00
42141;DHT22;27809;51.864;5.646;2023-06-14T09:37:05;27.10;1.00
42141;DHT22;27809;51.864;5.646;2023-06-14T09:39:31;26.80;1.00
42141;DHT22;27809;51.864;5.646;2023-06-14T09:41:56;26.90;1.00
42141;DHT22;27809;51.864;5.646;2023-06-14T09:44:22;27.00;1.00
42141;DHT22;27809;51.864;5.646;2023-06-14T09:46:56;27.20;1.00
42141;DHT22;27809;51.864;5.646;2023-06-14T09:49:21;27.10;1.00
42141;DHT22;27809;51.864;5.646;2023-06-14T09:51:50;27.10;1.00
42141;DHT22;27809;51.864;5.646;2023-06-14T09:54:21;27.00;1.00
42141;DHT22;27809;51.864;5.646;2023-06-14T09:56:48;27.10;1.00
42141;DHT22;27809;51.864;5.646;2023-06-14T09:59:19;26.80;1.00
42141;DHT22;27809;51.864;5.646;2023-06-14T10:01:47;27.00;1.00
42141;DHT22;27809;51.864;5.646;2023-06-14T10:04:14;26.80;1.00
42141;DHT22;27809;51.864;5.646;2023-06-14T10:06:43;26.90;1.00
42141;DHT22;27809;51.864;5.646;2023-06-14T10:09:10;27.10;1.00
42141;DHT22;27809;51.864;5.646;2023-06-14T10:11:37;27.30;1.00
42141;DHT22;27809;51.864;5.646;2023-06-14T10:14:10;27.10;1.00
42141;DHT22;27809;51.864;5.646;2023-06-14T10:16:37;27.20;1.00
42141;DHT22;27809;51.864;5.646;2023-06-14T10:19:14;26.90;1.00
42141;DHT22;27809;51.864;5.646;2023-06-14T10:21:55;26.80;1.00
42141;DHT22;27809;51.864;5.646;2023-06-14T10:24:38;26.90;1.00
42141;DHT22;27809;51.864;5.646;2023-06-14T10:27:06;26.90;1.00
42141;DHT22;27809;51.864;5.646;2023-06-14T10:32:27;26.90;1.00
42141;DHT22;27809;51.864;5.646;2023-06-14T10:35:02;27.00;1.00
42141;DHT22;27809;51.864;5.646;2023-06-14T10:37:29;27.20;1.00
42141;DHT22;27809;51.864;5.646;2023-06-14T10:39:55;27.10;1.00
42141;DHT22;27809;51.864;5.646;2023-06-14T10:42:21;27.00;1.00
42141;DHT22;27809;51.864;5.646;2023-06-14T10:44:52;26.90;1.00
42141;DHT22;27809;51.864;5.646;2023-06-14T10:47:32;27.30;1.00
42141;DHT22;27809;51.864;5.646;2023-06-14T10:50:11;27.50;1.00
42141;DHT22;27809;51.864;5.646;2023-06-14T10:52:40;27.00;1.00
42141;DHT22;27809;51.864;5.646;2023-06-14T10:55:14;27.10;1.00
42141;DHT22;27809;51.864;5.646;2023-06-14T10:57:43;27.20;1.00
42141;DHT22;27809;51.864;5.646;2023-06-14T11:00:10;26.90;1.00
42141;DHT22;27809;51.864;5.646;2023-06-14T11:03:06;26.80;1.00
42141;DHT22;27809;51.864;5.646;2023-06-14T11:05:57;27.30;1.00
42141;DHT22;27809;51.864;5.646;2023-06-14T11:11:06;27.30;1.00
42141;DHT22;27809;51.864;5.646;2023-06-14T11:13:32;27.30;1.00
42141;DHT22;27809;51.864;5.646;2023-06-14T11:15:57;27.30;1.00
42141;DHT22;27809;51.864;5.646;2023-06-14T11:18:23;27.20;1.00
42141;DHT22;27809;51.864;5.646;2023-06-14T11:20:55;27.20;1.00
42141;DHT22;27809;51.864;5.646;2023-06-14T11:23:21;27.00;1.00
42141;DHT22;27809;51.864;5.646;2023-06-14T11:25:51;27.10;1.00
42141;DHT22;27809;51.864;5.646;2023-06-14T11:28:17;26.90;1.00
42141;DHT22;27809;51.864;5.646;2023-06-14T11:30:45;26.80;1.00
42141;DHT22;27809;51.864;5.646;2023-06-14T11:33:11;26.80;1.00
42141;DHT22;27809;51.864;5.646;2023-06-14T11:35:42;26.80;1.00
42141;DHT22;27809;51.864;5.646;2023-06-14T11:38:10;26.80;1.00
42141;DHT22;27809;51.864;5.646;2023-06-14T11:40:38;26.80;1.00
42141;DHT22;27809;51.864;5.646;2023-06-14T11:43:03;27.00;1.00
42141;DHT22;27809;51.864;5.646;2023-06-14T11:45:30;26.80;1.00
42141;DHT22;27809;51.864;5.646;2023-06-14T11:47:57;26.80;1.00
42141;DHT22;27809;51.864;5.646;2023-06-14T11:50:23;26.80;1.00
42141;DHT22;27809;51.864;5.646;2023-06-14T11:52:55;26.90;1.00
42141;DHT22;27809;51.864;5.646;2023-06-14T11:55:22;26.70;1.00
42141;DHT22;27809;51.864;5.646;2023-06-14T11:57:48;27.00;1.00
42141;DHT22;27809;51.864;5.646;2023-06-14T12:00:14;26.70;1.00
42141;DHT22;27809;51.864;5.646;2023-06-14T12:02:41;26.30;1.00
42141;DHT22;27809;51.864;5.646;2023-06-14T12:05:08;26.60;1.00
42141;DHT22;27809;51.864;5.646;2023-06-14T12:07:39;26.50;1.00
42141;DHT22;27809;51.864;5.646;2023-06-14T12:10:08;26.50;1.00
42141;DHT22;27809;51.864;5.646;2023-06-14T12:12:36;26.40;1.00
42141;DHT22;27809;51.864;5.646;2023-06-14T12:15:04;26.80;1.00
42141;DHT22;27809;51.864;5.646;2023-06-14T12:17:37;26.70;1.00
42141;DHT22;27809;51.864;5.646;2023-06-14T12:20:11;26.70;1.00
42141;DHT22;27809;51.864;5.646;2023-06-14T12:23:07;26.30;1.00
42141;DHT22;27809;51.864;5.646;2023-06-14T12:25:36;26.30;1.00
42141;DHT22;27809;51.864;5.646;2023-06-14T12:28:08;26.70;1.00
42141;DHT22;27809;51.864;5.646;2023-06-14T12:30:36;26.80;1.00
42141;DHT22;27809;51.864;5.646;2023-06-14T12:33:05;26.80;1.00
42141;DHT22;27809;51.864;5.646;2023-06-14T12:35:31;26.80;1.00
42141;DHT22;27809;51.864;5.646;2023-06-14T12:37:56;26.90;1.00
42141;DHT22;27809;51.864;5.646;2023-06-14T12:40:22;26.80;1.00
42141;DHT22;27809;51.864;5.646;2023-06-14T12:42:48;26.90;1.00
42141;DHT22;27809;51.864;5.646;2023-06-14T12:45:13;26.50;1.00
42141;DHT22;27809;51.864;5.646;2023-06-14T12:47:39;26.50;1.00
42141;DHT22;27809;51.864;5.646;2023-06-14T12:50:05;26.50;1.00
42141;DHT22;27809;51.864;5.646;2023-06-14T12:52:31;26.80;1.00
42141;DHT22;27809;51.864;5.646;2023-06-14T12:54:57;26.70;1.00
42141;DHT22;27809;51.864;5.646;2023-06-14T12:57:23;26.70;1.00
42141;DHT22;27809;51.864;5.646;2023-06-14T12:59:49;27.00;1.00
42141;DHT22;27809;51.864;5.646;2023-06-14T13:02:16;26.70;1.00
42141;DHT22;27809;51.864;5.646;2023-06-14T13:04:43;26.70;1.00
42141;DHT22;27809;51.864;5.646;2023-06-14T13:07:08;26.90;1.00
42141;DHT22;27809;51.864;5.646;2023-06-14T13:09:36;26.70;1.00
42141;DHT22;27809;51.864;5.646;2023-06-14T13:12:01;27.00;1.00
42141;DHT22;27809;51.864;5.646;2023-06-14T13:14:27;26.60;1.00
42141;DHT22;27809;51.864;5.646;2023-06-14T13:16:53;26.80;1.00
42141;DHT22;27809;51.864;5.646;2023-06-14T13:19:18;26.70;1.00
42141;DHT22;27809;51.864;5.646;2023-06-14T13:21:44;26.50;1.00
42141;DHT22;27809;51.864;5.646;2023-06-14T13:24:09;26.90;1.00
42141;DHT22;27809;51.864;5.646;2023-06-14T13:26:35;27.00;1.00
42141;DHT22;27809;51.864;5.646;2023-06-14T13:29:00;27.20;1.00
42141;DHT22;27809;51.864;5.646;2023-06-14T13:31:26;27.30;1.00
42141;DHT22;27809;51.864;5.646;2023-06-14T13:33:51;27.40;1.00
42141;DHT22;27809;51.864;5.646;2023-06-14T13:36:17;27.00;1.00
42141;DHT22;27809;51.864;5.646;2023-06-14T13:38:42;27.20;1.00
42141;DHT22;27809;51.864;5.646;2023-06-14T13:41:08;26.90;1.00
42141;DHT22;27809;51.864;5.646;2023-06-14T13:43:33;26.90;1.00
42141;DHT22;27809;51.864;5.646;2023-06-14T13:45:59;27.30;1.00
42141;DHT22;27809;51.864;5.646;2023-06-14T13:48:25;27.40;1.00
42141;DHT22;27809;51.864;5.646;2023-06-14T13:50:51;27.30;1.00
42141;DHT22;27809;51.864;5.646;2023-06-14T13:53:16;27.60;1.00
42141;DHT22;27809;51.864;5.646;2023-06-14T13:55:42;27.50;1.00
42141;DHT22;27809;51.864;5.646;2023-06-14T13:58:08;27.70;1.00
42141;DHT22;27809;51.864;5.646;2023-06-14T14:00:33;27.70;1.00
42141;DHT22;27809;51.864;5.646;2023-06-14T14:02:59;27.40;1.00
42141;DHT22;27809;51.864;5.646;2023-06-14T14:05:25;27.30;1.00
42141;DHT22;27809;51.864;5.646;2023-06-14T14:07:55;27.50;1.00
42141;DHT22;27809;51.864;5.646;2023-06-14T14:10:20;27.60;1.00
42141;DHT22;27809;51.864;5.646;2023-06-14T14:12:46;27.40;1.00
42141;DHT22;27809;51.864;5.646;2023-06-14T14:15:11;27.70;1.00
42141;DHT22;27809;51.864;5.646;2023-06-14T14:17:40;27.20;1.00
42141;DHT22;27809;51.864;5.646;2023-06-14T14:20:06;27.30;1.00
42141;DHT22;27809;51.864;5.646;2023-06-14T14:22:32;27.40;1.00
42141;DHT22;27809;51.864;5.646;2023-06-14T14:24:57;27.80;1.00
42141;DHT22;27809;51.864;5.646;2023-06-14T14:27:23;27.60;1.00
42141;DHT22;27809;51.864;5.646;2023-06-14T14:29:48;27.80;1.00
42141;DHT22;27809;51.864;5.646;2023-06-14T14:32:14;27.30;1.00
42141;DHT22;27809;51.864;5.646;2023-06-14T14:34:40;27.10;1.00
42141;DHT22;27809;51.864;5.646;2023-06-14T14:37:06;27.30;1.00
42141;DHT22;27809;51.864;5.646;2023-06-14T14:39:31;27.30;1.00
42141;DHT22;27809;51.864;5.646;2023-06-14T14:41:57;28.00;1.00
42141;DHT22;27809;51.864;5.646;2023-06-14T14:44:22;28.20;1.00
42141;DHT22;27809;51.864;5.646;2023-06-14T14:46:48;28.40;1.00
42141;DHT22;27809;51.864;5.646;2023-06-14T14:49:13;27.90;1.00
42141;DHT22;27809;51.864;5.646;2023-06-14T14:51:39;28.30;1.00
42141;DHT22;27809;51.864;5.646;2023-06-14T14:54:05;28.20;1.00
42141;DHT22;27809;51.864;5.646;2023-06-14T14:56:31;28.30;1.00
42141;DHT22;27809;51.864;5.646;2023-06-14T14:58:56;28.10;1.00
42141;DHT22;27809;51.864;5.646;2023-06-14T15:01:22;28.10;1.00
42141;DHT22;27809;51.864;5.646;2023-06-14T15:03:48;28.00;1.00
42141;DHT22;27809;51.864;5.646;2023-06-14T15:06:13;28.10;1.00
42141;DHT22;27809;51.864;5.646;2023-06-14T15:08:39;27.90;1.00
42141;DHT22;27809;51.864;5.646;2023-06-14T15:11:04;28.10;1.00
42141;DHT22;27809;51.864;5.646;2023-06-14T15:13:30;27.80;1.00
42141;DHT22;27809;51.864;5.646;2023-06-14T15:15:55;28.10;1.00
42141;DHT22;27809;51.864;5.646;2023-06-14T15:18:21;27.40;1.00
42141;DHT22;27809;51.864;5.646;2023-06-14T15:20:47;27.70;1.00
42141;DHT22;27809;51.864;5.646;2023-06-14T15:23:12;27.60;1.00
42141;DHT22;27809;51.864;5.646;2023-06-14T15:25:44;27.60;1.00
42141;DHT22;27809;51.864;5.646;2023-06-14T15:28:10;28.00;1.00
42141;DHT22;27809;51.864;5.646;2023-06-14T15:30:36;28.20;1.00
42141;DHT22;27809;51.864;5.646;2023-06-14T15:33:01;28.30;1.00
42141;DHT22;27809;51.864;5.646;2023-06-14T15:35:27;28.10;1.00
42141;DHT22;27809;51.864;5.646;2023-06-14T15:37:52;28.30;1.00
42141;DHT22;27809;51.864;5.646;2023-06-14T15:40:18;28.00;1.00
42141;DHT22;27809;51.864;5.646;2023-06-14T15:42:43;27.80;1.00
42141;DHT22;27809;51.864;5.646;2023-06-14T15:45:09;28.20;1.00
42141;DHT22;27809;51.864;5.646;2023-06-14T15:47:35;27.90;1.00
42141;DHT22;27809;51.864;5.646;2023-06-14T15:50:00;27.90;1.00
42141;DHT22;27809;51.864;5.646;2023-06-14T15:52:26;27.90;1.00